Terminal Aerodrome Forecast
Issued by NWS

Home | Current Version | Previous Version | Text Only | Print | Product List | Glossary Off
Versions: 1 2 3 4 5 6 7 8 9 10 11 12 13 14 15 16 17 18 19 20 21 22 23 24 25 26 27

000
FTUS43 KLOT 240312 AAA
TAFGYY
TAF AMD
KGYY 240312Z 2403/2424 29005KT P6SM OVC015
     FM240600 34005KT P6SM OVC015
     FM240900 04008KT 6SM BR SCT007 OVC015
     FM241300 08013KT P6SM OVC015=

USA.gov is the U.S. government's official web portal to all federal, state and local government web resources and services.